sensor_id;sensor_type;location;lat;lon;timestamp;temperature;humidity
17687;DHT22;8962;52.538;13.266;2024-01-06T00:00:49;2.30;99.90
17687;DHT22;8962;52.538;13.266;2024-01-06T00:03:16;2.30;99.90
17687;DHT22;8962;52.538;13.266;2024-01-06T00:05:43;2.30;99.90
17687;DHT22;8962;52.538;13.266;2024-01-06T00:08:10;2.30;99.90
17687;DHT22;8962;52.538;13.266;2024-01-06T00:10:37;2.30;99.90
17687;DHT22;8962;52.538;13.266;2024-01-06T00:13:05;2.30;99.90
17687;DHT22;8962;52.538;13.266;2024-01-06T00:15:34;2.30;99.90
17687;DHT22;8962;52.538;13.266;2024-01-06T00:18:01;2.40;99.90
17687;DHT22;8962;52.538;13.266;2024-01-06T00:20:28;2.30;99.90
17687;DHT22;8962;52.538;13.266;2024-01-06T00:22:55;2.40;99.90
17687;DHT22;8962;52.538;13.266;2024-01-06T00:25:24;2.30;99.90
17687;DHT22;8962;52.538;13.266;2024-01-06T00:27:51;2.30;99.90
17687;DHT22;8962;52.538;13.266;2024-01-06T00:30:19;2.30;99.90
17687;DHT22;8962;52.538;13.266;2024-01-06T00:32:48;2.30;99.90
17687;DHT22;8962;52.538;13.266;2024-01-06T00:35:16;2.30;99.90
17687;DHT22;8962;52.538;13.266;2024-01-06T00:37:43;2.30;99.90
17687;DHT22;8962;52.538;13.266;2024-01-06T00:40:11;2.30;99.90
17687;DHT22;8962;52.538;13.266;2024-01-06T00:42:38;2.30;99.90
17687;DHT22;8962;52.538;13.266;2024-01-06T00:45:08;2.30;99.90
17687;DHT22;8962;52.538;13.266;2024-01-06T00:47:35;2.40;99.90
17687;DHT22;8962;52.538;13.266;2024-01-06T00:50:04;2.30;99.90
17687;DHT22;8962;52.538;13.266;2024-01-06T00:52:31;2.30;99.90
17687;DHT22;8962;52.538;13.266;2024-01-06T00:54:58;2.30;99.90
17687;DHT22;8962;52.538;13.266;2024-01-06T00:57:25;2.30;99.90
17687;DHT22;8962;52.538;13.266;2024-01-06T00:59:53;2.30;99.90
17687;DHT22;8962;52.538;13.266;2024-01-06T01:02:20;2.30;99.90
17687;DHT22;8962;52.538;13.266;2024-01-06T01:04:47;2.40;99.90
17687;DHT22;8962;52.538;13.266;2024-01-06T01:07:15;2.30;99.90
17687;DHT22;8962;52.538;13.266;2024-01-06T01:09:43;2.30;99.90
17687;DHT22;8962;52.538;13.266;2024-01-06T01:12:10;2.30;99.90
17687;DHT22;8962;52.538;13.266;2024-01-06T01:14:37;2.30;99.90
17687;DHT22;8962;52.538;13.266;2024-01-06T01:17:05;2.30;99.90
17687;DHT22;8962;52.538;13.266;2024-01-06T01:19:32;2.30;99.90
17687;DHT22;8962;52.538;13.266;2024-01-06T01:21:59;2.30;99.90
17687;DHT22;8962;52.538;13.266;2024-01-06T01:24:28;2.30;99.90
17687;DHT22;8962;52.538;13.266;2024-01-06T01:26:55;2.30;99.90
17687;DHT22;8962;52.538;13.266;2024-01-06T01:29:22;2.20;99.90
17687;DHT22;8962;52.538;13.266;2024-01-06T01:31:50;2.30;99.90
17687;DHT22;8962;52.538;13.266;2024-01-06T01:34:17;2.30;99.90
17687;DHT22;8962;52.538;13.266;2024-01-06T01:36:44;2.30;99.90
17687;DHT22;8962;52.538;13.266;2024-01-06T01:39:11;2.30;99.90
17687;DHT22;8962;52.538;13.266;2024-01-06T01:41:40;2.30;99.90
17687;DHT22;8962;52.538;13.266;2024-01-06T01:44:07;2.20;99.90
17687;DHT22;8962;52.538;13.266;2024-01-06T01:46:36;2.20;99.90
17687;DHT22;8962;52.538;13.266;2024-01-06T01:49:04;2.20;99.90
17687;DHT22;8962;52.538;13.266;2024-01-06T01:51:33;2.20;99.90
17687;DHT22;8962;52.538;13.266;2024-01-06T01:54:02;2.20;99.90
17687;DHT22;8962;52.538;13.266;2024-01-06T01:56:31;2.20;99.90
17687;DHT22;8962;52.538;13.266;2024-01-06T01:59:03;2.20;99.90
17687;DHT22;8962;52.538;13.266;2024-01-06T02:01:34;2.20;99.90
17687;DHT22;8962;52.538;13.266;2024-01-06T02:04:01;2.10;99.90
17687;DHT22;8962;52.538;13.266;2024-01-06T02:06:31;2.10;99.90
17687;DHT22;8962;52.538;13.266;2024-01-06T02:08:58;2.10;99.90
17687;DHT22;8962;52.538;13.266;2024-01-06T02:11:25;2.10;99.90
17687;DHT22;8962;52.538;13.266;2024-01-06T02:14:01;2.10;99.90
17687;DHT22;8962;52.538;13.266;2024-01-06T02:16:29;2.00;99.90
17687;DHT22;8962;52.538;13.266;2024-01-06T02:18:56;2.10;99.90
17687;DHT22;8962;52.538;13.266;2024-01-06T02:21:24;2.10;99.90
17687;DHT22;8962;52.538;13.266;2024-01-06T02:23:57;2.10;99.90
17687;DHT22;8962;52.538;13.266;2024-01-06T02:26:24;2.10;99.90
17687;DHT22;8962;52.538;13.266;2024-01-06T02:28:52;2.10;99.90
17687;DHT22;8962;52.538;13.266;2024-01-06T02:31:19;2.10;99.90
17687;DHT22;8962;52.538;13.266;2024-01-06T02:33:46;2.10;99.90
17687;DHT22;8962;52.538;13.266;2024-01-06T02:36:13;2.10;99.90
17687;DHT22;8962;52.538;13.266;2024-01-06T02:38:42;2.10;99.90
17687;DHT22;8962;52.538;13.266;2024-01-06T02:41:11;2.10;99.90
17687;DHT22;8962;52.538;13.266;2024-01-06T02:43:38;2.00;99.90
17687;DHT22;8962;52.538;13.266;2024-01-06T02:46:08;2.10;99.90
17687;DHT22;8962;52.538;13.266;2024-01-06T02:48:35;2.00;99.90
17687;DHT22;8962;52.538;13.266;2024-01-06T02:51:03;2.00;99.90
17687;DHT22;8962;52.538;13.266;2024-01-06T02:53:30;2.00;99.90
17687;DHT22;8962;52.538;13.266;2024-01-06T02:55:57;2.00;99.90
17687;DHT22;8962;52.538;13.266;2024-01-06T02:58:26;2.10;99.90
17687;DHT22;8962;52.538;13.266;2024-01-06T03:00:53;2.10;99.90
17687;DHT22;8962;52.538;13.266;2024-01-06T03:03:21;2.00;99.90
17687;DHT22;8962;52.538;13.266;2024-01-06T03:05:47;2.00;99.90
17687;DHT22;8962;52.538;13.266;2024-01-06T03:08:15;1.90;99.90
17687;DHT22;8962;52.538;13.266;2024-01-06T03:10:42;1.90;99.90
17687;DHT22;8962;52.538;13.266;2024-01-06T03:13:10;1.90;99.90
17687;DHT22;8962;52.538;13.266;2024-01-06T03:15:40;1.90;99.90
17687;DHT22;8962;52.538;13.266;2024-01-06T03:18:08;1.90;99.90
17687;DHT22;8962;52.538;13.266;2024-01-06T03:20:35;1.90;99.90
17687;DHT22;8962;52.538;13.266;2024-01-06T03:23:02;1.90;99.90
17687;DHT22;8962;52.538;13.266;2024-01-06T03:25:30;1.90;99.90
17687;DHT22;8962;52.538;13.266;2024-01-06T03:27:57;1.90;99.90
17687;DHT22;8962;52.538;13.266;2024-01-06T03:30:24;1.90;99.90
17687;DHT22;8962;52.538;13.266;2024-01-06T03:32:54;2.00;99.90
17687;DHT22;8962;52.538;13.266;2024-01-06T03:35:21;2.00;99.90
17687;DHT22;8962;52.538;13.266;2024-01-06T03:37:49;2.00;99.90
17687;DHT22;8962;52.538;13.266;2024-01-06T03:40:16;2.00;99.90
17687;DHT22;8962;52.538;13.266;2024-01-06T03:42:43;2.00;99.90
17687;DHT22;8962;52.538;13.266;2024-01-06T03:45:10;2.00;99.90
17687;DHT22;8962;52.538;13.266;2024-01-06T03:47:37;2.00;99.90
17687;DHT22;8962;52.538;13.266;2024-01-06T03:50:06;2.00;99.90
17687;DHT22;8962;52.538;13.266;2024-01-06T03:52:34;1.90;99.90
17687;DHT22;8962;52.538;13.266;2024-01-06T03:55:01;2.00;99.90
17687;DHT22;8962;52.538;13.266;2024-01-06T03:57:28;1.90;99.90
17687;DHT22;8962;52.538;13.266;2024-01-06T03:59:55;1.90;99.90
17687;DHT22;8962;52.538;13.266;2024-01-06T04:02:22;2.00;99.90
17687;DHT22;8962;52.538;13.266;2024-01-06T04:04:50;2.00;99.90
17687;DHT22;8962;52.538;13.266;2024-01-06T04:07:18;2.00;99.90
17687;DHT22;8962;52.538;13.266;2024-01-06T04:09:45;1.90;99.90
17687;DHT22;8962;52.538;13.266;2024-01-06T04:12:15;1.90;99.90
17687;DHT22;8962;52.538;13.266;2024-01-06T04:14:42;1.90;99.90
17687;DHT22;8962;52.538;13.266;2024-01-06T04:17:09;1.90;99.90
17687;DHT22;8962;52.538;13.266;2024-01-06T04:19:36;1.90;99.90
17687;DHT22;8962;52.538;13.266;2024-01-06T04:22:03;1.90;99.90
17687;DHT22;8962;52.538;13.266;2024-01-06T04:24:32;1.90;99.90
17687;DHT22;8962;52.538;13.266;2024-01-06T04:27:03;1.90;99.90
17687;DHT22;8962;52.538;13.266;2024-01-06T04:29:31;2.00;99.90
17687;DHT22;8962;52.538;13.266;2024-01-06T04:31:58;2.00;99.90
17687;DHT22;8962;52.538;13.266;2024-01-06T04:34:25;1.90;99.90
17687;DHT22;8962;52.538;13.266;2024-01-06T04:36:52;1.90;99.90
17687;DHT22;8962;52.538;13.266;2024-01-06T04:39:20;1.80;99.90
17687;DHT22;8962;52.538;13.266;2024-01-06T04:41:48;1.80;99.90
17687;DHT22;8962;52.538;13.266;2024-01-06T04:44:18;1.90;99.90
17687;DHT22;8962;52.538;13.266;2024-01-06T04:46:45;1.90;99.90
17687;DHT22;8962;52.538;13.266;2024-01-06T04:49:12;1.90;99.90
17687;DHT22;8962;52.538;13.266;2024-01-06T04:51:40;1.90;99.90
17687;DHT22;8962;52.538;13.266;2024-01-06T04:54:09;1.90;99.90
17687;DHT22;8962;52.538;13.266;2024-01-06T04:56:37;1.90;99.90
17687;DHT22;8962;52.538;13.266;2024-01-06T04:59:05;2.00;99.90
17687;DHT22;8962;52.538;13.266;2024-01-06T05:01:33;2.00;99.90
17687;DHT22;8962;52.538;13.266;2024-01-06T05:04:01;1.90;99.90
17687;DHT22;8962;52.538;13.266;2024-01-06T05:06:28;2.00;99.90
17687;DHT22;8962;52.538;13.266;2024-01-06T05:08:55;1.90;99.90
17687;DHT22;8962;52.538;13.266;2024-01-06T05:11:22;2.00;99.90
17687;DHT22;8962;52.538;13.266;2024-01-06T05:13:50;1.90;99.90
17687;DHT22;8962;52.538;13.266;2024-01-06T05:16:18;1.90;99.90
17687;DHT22;8962;52.538;13.266;2024-01-06T05:18:45;2.00;99.90
17687;DHT22;8962;52.538;13.266;2024-01-06T05:21:14;2.00;99.90
17687;DHT22;8962;52.538;13.266;2024-01-06T05:23:41;2.00;99.90
17687;DHT22;8962;52.538;13.266;2024-01-06T05:26:09;2.00;99.90
17687;DHT22;8962;52.538;13.266;2024-01-06T05:28:37;2.00;99.90
17687;DHT22;8962;52.538;13.266;2024-01-06T05:31:04;2.00;99.90
17687;DHT22;8962;52.538;13.266;2024-01-06T05:33:33;2.00;99.90
17687;DHT22;8962;52.538;13.266;2024-01-06T05:36:02;2.00;99.90
17687;DHT22;8962;52.538;13.266;2024-01-06T05:38:30;2.00;99.90
17687;DHT22;8962;52.538;13.266;2024-01-06T05:40:57;2.00;99.90
17687;DHT22;8962;52.538;13.266;2024-01-06T05:43:24;2.00;99.90
17687;DHT22;8962;52.538;13.266;2024-01-06T05:45:51;1.90;99.90
17687;DHT22;8962;52.538;13.266;2024-01-06T05:48:18;1.90;99.90
17687;DHT22;8962;52.538;13.266;2024-01-06T05:50:47;1.90;99.90
17687;DHT22;8962;52.538;13.266;2024-01-06T05:53:14;2.10;99.90
17687;DHT22;8962;52.538;13.266;2024-01-06T05:55:44;2.00;99.90
17687;DHT22;8962;52.538;13.266;2024-01-06T05:58:11;1.90;99.90
17687;DHT22;8962;52.538;13.266;2024-01-06T06:00:39;1.80;99.90
17687;DHT22;8962;52.538;13.266;2024-01-06T06:03:06;1.80;99.90
17687;DHT22;8962;52.538;13.266;2024-01-06T06:05:33;1.80;99.90
17687;DHT22;8962;52.538;13.266;2024-01-06T06:08:02;1.80;99.90
17687;DHT22;8962;52.538;13.266;2024-01-06T06:10:29;1.80;99.90
17687;DHT22;8962;52.538;13.266;2024-01-06T06:13:06;1.80;99.90
17687;DHT22;8962;52.538;13.266;2024-01-06T06:15:36;1.70;99.90
17687;DHT22;8962;52.538;13.266;2024-01-06T06:18:04;1.90;99.90
17687;DHT22;8962;52.538;13.266;2024-01-06T06:20:32;1.80;99.90
17687;DHT22;8962;52.538;13.266;2024-01-06T06:23:00;1.80;99.90
17687;DHT22;8962;52.538;13.266;2024-01-06T06:25:28;1.70;99.90
17687;DHT22;8962;52.538;13.266;2024-01-06T06:27:55;1.60;99.90
17687;DHT22;8962;52.538;13.266;2024-01-06T06:30:22;1.60;99.90
17687;DHT22;8962;52.538;13.266;2024-01-06T06:32:50;1.60;99.90
17687;DHT22;8962;52.538;13.266;2024-01-06T06:35:17;1.60;99.90
17687;DHT22;8962;52.538;13.266;2024-01-06T06:37:44;1.70;99.90
17687;DHT22;8962;52.538;13.266;2024-01-06T06:40:14;1.70;99.90
17687;DHT22;8962;52.538;13.266;2024-01-06T06:42:41;1.70;99.90
17687;DHT22;8962;52.538;13.266;2024-01-06T06:45:09;1.70;99.90
17687;DHT22;8962;52.538;13.266;2024-01-06T06:47:38;1.60;99.90
17687;DHT22;8962;52.538;13.266;2024-01-06T06:50:06;1.50;99.90
17687;DHT22;8962;52.538;13.266;2024-01-06T06:52:34;1.40;99.90
17687;DHT22;8962;52.538;13.266;2024-01-06T06:55:01;1.40;99.90
17687;DHT22;8962;52.538;13.266;2024-01-06T06:57:30;1.40;99.90
17687;DHT22;8962;52.538;13.266;2024-01-06T06:59:58;1.40;99.90
17687;DHT22;8962;52.538;13.266;2024-01-06T07:02:25;1.50;99.90
17687;DHT22;8962;52.538;13.266;2024-01-06T07:04:52;1.50;99.90
17687;DHT22;8962;52.538;13.266;2024-01-06T07:07:20;1.40;99.90
17687;DHT22;8962;52.538;13.266;2024-01-06T07:09:48;1.40;99.90
17687;DHT22;8962;52.538;13.266;2024-01-06T07:12:15;1.40;99.90
17687;DHT22;8962;52.538;13.266;2024-01-06T07:14:44;1.40;99.90
17687;DHT22;8962;52.538;13.266;2024-01-06T07:17:11;1.40;99.90
17687;DHT22;8962;52.538;13.266;2024-01-06T07:19:38;1.40;99.90
17687;DHT22;8962;52.538;13.266;2024-01-06T07:22:06;1.30;99.90
17687;DHT22;8962;52.538;13.266;2024-01-06T07:24:35;1.30;99.90
17687;DHT22;8962;52.538;13.266;2024-01-06T07:27:03;1.30;99.90
17687;DHT22;8962;52.538;13.266;2024-01-06T07:29:30;1.30;99.90
17687;DHT22;8962;52.538;13.266;2024-01-06T07:31:59;1.30;99.90
17687;DHT22;8962;52.538;13.266;2024-01-06T07:34:26;1.30;99.90
17687;DHT22;8962;52.538;13.266;2024-01-06T07:36:53;1.20;99.90
17687;DHT22;8962;52.538;13.266;2024-01-06T07:39:20;1.20;99.90
17687;DHT22;8962;52.538;13.266;2024-01-06T07:41:53;1.20;99.90
17687;DHT22;8962;52.538;13.266;2024-01-06T07:44:21;1.30;99.90
17687;DHT22;8962;52.538;13.266;2024-01-06T07:46:50;1.30;99.90
17687;DHT22;8962;52.538;13.266;2024-01-06T07:49:20;1.20;99.90
17687;DHT22;8962;52.538;13.266;2024-01-06T07:51:47;1.20;99.90
17687;DHT22;8962;52.538;13.266;2024-01-06T07:54:15;1.30;99.90
17687;DHT22;8962;52.538;13.266;2024-01-06T07:56:44;1.20;99.90
17687;DHT22;8962;52.538;13.266;2024-01-06T07:59:12;1.20;99.90
17687;DHT22;8962;52.538;13.266;2024-01-06T08:01:40;1.20;99.90
17687;DHT22;8962;52.538;13.266;2024-01-06T08:04:08;1.30;99.90
17687;DHT22;8962;52.538;13.266;2024-01-06T08:06:37;1.20;99.90
17687;DHT22;8962;52.538;13.266;2024-01-06T08:09:04;1.30;99.90
17687;DHT22;8962;52.538;13.266;2024-01-06T08:11:32;1.20;99.90
17687;DHT22;8962;52.538;13.266;2024-01-06T08:13:59;1.20;99.90
17687;DHT22;8962;52.538;13.266;2024-01-06T08:16:27;1.30;99.90
17687;DHT22;8962;52.538;13.266;2024-01-06T08:18:54;1.40;99.90
17687;DHT22;8962;52.538;13.266;2024-01-06T08:21:21;1.30;99.90
17687;DHT22;8962;52.538;13.266;2024-01-06T08:23:50;1.30;99.90
17687;DHT22;8962;52.538;13.266;2024-01-06T08:26:17;1.40;99.90
17687;DHT22;8962;52.538;13.266;2024-01-06T08:28:45;1.40;99.90
17687;DHT22;8962;52.538;13.266;2024-01-06T08:31:13;1.50;99.90
17687;DHT22;8962;52.538;13.266;2024-01-06T08:33:40;1.50;99.90
17687;DHT22;8962;52.538;13.266;2024-01-06T08:36:07;1.60;99.90
17687;DHT22;8962;52.538;13.266;2024-01-06T08:38:35;1.70;99.90
17687;DHT22;8962;52.538;13.266;2024-01-06T08:41:04;1.70;99.90
17687;DHT22;8962;52.538;13.266;2024-01-06T08:43:32;1.70;99.90
17687;DHT22;8962;52.538;13.266;2024-01-06T08:45:59;1.70;99.90
17687;DHT22;8962;52.538;13.266;2024-01-06T08:48:28;1.70;99.90
17687;DHT22;8962;52.538;13.266;2024-01-06T08:50:55;1.80;99.90
17687;DHT22;8962;52.538;13.266;2024-01-06T08:53:22;1.80;99.90
17687;DHT22;8962;52.538;13.266;2024-01-06T08:55:50;1.80;99.90
17687;DHT22;8962;52.538;13.266;2024-01-06T08:58:19;1.80;99.90
17687;DHT22;8962;52.538;13.266;2024-01-06T09:00:46;1.60;99.90
17687;DHT22;8962;52.538;13.266;2024-01-06T09:03:13;1.40;99.90
17687;DHT22;8962;52.538;13.266;2024-01-06T09:05:41;1.40;99.90
17687;DHT22;8962;52.538;13.266;2024-01-06T09:08:09;1.30;99.90
17687;DHT22;8962;52.538;13.266;2024-01-06T09:10:36;1.30;99.90
17687;DHT22;8962;52.538;13.266;2024-01-06T09:13:03;1.30;99.90
17687;DHT22;8962;52.538;13.266;2024-01-06T09:15:32;1.30;99.90
17687;DHT22;8962;52.538;13.266;2024-01-06T09:17:59;1.20;99.90
17687;DHT22;8962;52.538;13.266;2024-01-06T09:20:27;1.20;99.90
17687;DHT22;8962;52.538;13.266;2024-01-06T09:22:54;1.30;99.90
17687;DHT22;8962;52.538;13.266;2024-01-06T09:25:21;1.30;99.90
17687;DHT22;8962;52.538;13.266;2024-01-06T09:27:50;1.30;99.90
17687;DHT22;8962;52.538;13.266;2024-01-06T09:30:19;1.30;99.90
17687;DHT22;8962;52.538;13.266;2024-01-06T09:32:49;1.40;99.90
17687;DHT22;8962;52.538;13.266;2024-01-06T09:35:16;1.40;99.90
17687;DHT22;8962;52.538;13.266;2024-01-06T09:37:43;1.30;99.90
17687;DHT22;8962;52.538;13.266;2024-01-06T09:40:12;1.20;99.90
17687;DHT22;8962;52.538;13.266;2024-01-06T09:42:40;1.20;99.90
17687;DHT22;8962;52.538;13.266;2024-01-06T09:45:08;1.30;99.90
17687;DHT22;8962;52.538;13.266;2024-01-06T09:47:36;1.20;99.90
17687;DHT22;8962;52.538;13.266;2024-01-06T09:50:10;1.20;99.90
17687;DHT22;8962;52.538;13.266;2024-01-06T09:52:39;1.30;99.90
17687;DHT22;8962;52.538;13.266;2024-01-06T09:55:11;1.20;99.90
17687;DHT22;8962;52.538;13.266;2024-01-06T09:57:38;1.10;99.90
17687;DHT22;8962;52.538;13.266;2024-01-06T10:00:06;1.10;99.90
17687;DHT22;8962;52.538;13.266;2024-01-06T10:02:39;1.00;99.90
17687;DHT22;8962;52.538;13.266;2024-01-06T10:05:11;0.90;99.90
17687;DHT22;8962;52.538;13.266;2024-01-06T10:07:41;1.00;99.90
17687;DHT22;8962;52.538;13.266;2024-01-06T10:10:09;1.30;99.90
17687;DHT22;8962;52.538;13.266;2024-01-06T10:12:37;1.20;99.90
17687;DHT22;8962;52.538;13.266;2024-01-06T10:15:06;1.30;99.90
17687;DHT22;8962;52.538;13.266;2024-01-06T10:17:38;1.40;99.90
17687;DHT22;8962;52.538;13.266;2024-01-06T10:20:08;1.50;99.90
17687;DHT22;8962;52.538;13.266;2024-01-06T10:22:41;1.60;99.90
17687;DHT22;8962;52.538;13.266;2024-01-06T10:25:10;1.60;99.90
17687;DHT22;8962;52.538;13.266;2024-01-06T10:27:39;1.60;99.90
17687;DHT22;8962;52.538;13.266;2024-01-06T10:30:08;1.60;99.90
17687;DHT22;8962;52.538;13.266;2024-01-06T10:32:39;1.50;99.90
17687;DHT22;8962;52.538;13.266;2024-01-06T10:35:07;1.60;99.90
17687;DHT22;8962;52.538;13.266;2024-01-06T10:37:37;1.50;99.90
17687;DHT22;8962;52.538;13.266;2024-01-06T10:40:10;1.40;99.90
17687;DHT22;8962;52.538;13.266;2024-01-06T10:42:38;1.50;99.90
17687;DHT22;8962;52.538;13.266;2024-01-06T10:45:08;1.40;99.90
17687;DHT22;8962;52.538;13.266;2024-01-06T10:47:36;1.50;99.90
17687;DHT22;8962;52.538;13.266;2024-01-06T10:50:04;1.40;99.90
17687;DHT22;8962;52.538;13.266;2024-01-06T10:52:32;1.60;99.90
17687;DHT22;8962;52.538;13.266;2024-01-06T10:55:02;1.50;99.90
17687;DHT22;8962;52.538;13.266;2024-01-06T10:57:31;1.60;99.90
17687;DHT22;8962;52.538;13.266;2024-01-06T11:00:00;1.60;99.90
17687;DHT22;8962;52.538;13.266;2024-01-06T11:02:28;1.60;99.90
17687;DHT22;8962;52.538;13.266;2024-01-06T11:04:56;1.60;99.90
17687;DHT22;8962;52.538;13.266;2024-01-06T11:07:25;1.50;99.90
17687;DHT22;8962;52.538;13.266;2024-01-06T11:09:57;1.60;99.90
17687;DHT22;8962;52.538;13.266;2024-01-06T11:12:26;1.60;99.90
17687;DHT22;8962;52.538;13.266;2024-01-06T11:14:54;1.70;99.90
17687;DHT22;8962;52.538;13.266;2024-01-06T11:17:49;1.60;99.90
17687;DHT22;8962;52.538;13.266;2024-01-06T11:20:19;1.60;99.90
17687;DHT22;8962;52.538;13.266;2024-01-06T11:22:47;1.50;99.90
17687;DHT22;8962;52.538;13.266;2024-01-06T11:25:17;1.40;99.90
17687;DHT22;8962;52.538;13.266;2024-01-06T11:27:48;1.40;99.90
17687;DHT22;8962;52.538;13.266;2024-01-06T11:30:20;1.30;99.90
17687;DHT22;8962;52.538;13.266;2024-01-06T11:32:47;1.50;99.90
17687;DHT22;8962;52.538;13.266;2024-01-06T11:35:16;1.70;99.90
17687;DHT22;8962;52.538;13.266;2024-01-06T11:38:01;1.90;99.90
17687;DHT22;8962;52.538;13.266;2024-01-06T11:40:35;1.70;99.90
17687;DHT22;8962;52.538;13.266;2024-01-06T11:43:06;1.60;99.90
17687;DHT22;8962;52.538;13.266;2024-01-06T11:45:34;1.60;99.90
17687;DHT22;8962;52.538;13.266;2024-01-06T11:48:05;1.50;99.90
17687;DHT22;8962;52.538;13.266;2024-01-06T11:50:38;1.50;99.90
17687;DHT22;8962;52.538;13.266;2024-01-06T11:53:07;1.40;99.90
17687;DHT22;8962;52.538;13.266;2024-01-06T11:55:35;1.30;99.90
17687;DHT22;8962;52.538;13.266;2024-01-06T11:58:06;1.30;99.90
17687;DHT22;8962;52.538;13.266;2024-01-06T12:00:34;1.40;99.90
17687;DHT22;8962;52.538;13.266;2024-01-06T12:03:03;1.30;99.90
17687;DHT22;8962;52.538;13.266;2024-01-06T12:05:32;1.20;99.90
17687;DHT22;8962;52.538;13.266;2024-01-06T12:08:00;1.20;99.90
17687;DHT22;8962;52.538;13.266;2024-01-06T12:10:29;1.00;99.90
17687;DHT22;8962;52.538;13.266;2024-01-06T12:12:57;1.00;99.90
17687;DHT22;8962;52.538;13.266;2024-01-06T12:15:29;1.20;99.90
17687;DHT22;8962;52.538;13.266;2024-01-06T12:17:58;1.20;99.90
17687;DHT22;8962;52.538;13.266;2024-01-06T12:20:26;1.30;99.90
17687;DHT22;8962;52.538;13.266;2024-01-06T12:22:55;1.20;99.90
17687;DHT22;8962;52.538;13.266;2024-01-06T12:25:26;1.00;99.90
17687;DHT22;8962;52.538;13.266;2024-01-06T12:28:01;1.00;99.90
17687;DHT22;8962;52.538;13.266;2024-01-06T12:30:30;1.00;99.90
17687;DHT22;8962;52.538;13.266;2024-01-06T12:32:59;1.10;99.90
17687;DHT22;8962;52.538;13.266;2024-01-06T12:35:27;1.20;99.90
17687;DHT22;8962;52.538;13.266;2024-01-06T12:37:54;1.10;99.90
17687;DHT22;8962;52.538;13.266;2024-01-06T12:40:21;1.10;99.90
17687;DHT22;8962;52.538;13.266;2024-01-06T12:42:49;1.10;99.90
17687;DHT22;8962;52.538;13.266;2024-01-06T12:45:16;1.10;99.90
17687;DHT22;8962;52.538;13.266;2024-01-06T12:47:48;1.20;99.90
17687;DHT22;8962;52.538;13.266;2024-01-06T12:50:15;1.10;99.90
17687;DHT22;8962;52.538;13.266;2024-01-06T12:52:43;1.10;99.90
17687;DHT22;8962;52.538;13.266;2024-01-06T12:55:15;1.00;99.90
17687;DHT22;8962;52.538;13.266;2024-01-06T12:57:42;1.00;99.90
17687;DHT22;8962;52.538;13.266;2024-01-06T13:00:11;1.10;99.90
17687;DHT22;8962;52.538;13.266;2024-01-06T13:02:39;1.00;99.90
17687;DHT22;8962;52.538;13.266;2024-01-06T13:05:08;1.00;99.90
17687;DHT22;8962;52.538;13.266;2024-01-06T13:07:37;1.00;99.90
17687;DHT22;8962;52.538;13.266;2024-01-06T13:10:05;1.00;99.90
17687;DHT22;8962;52.538;13.266;2024-01-06T13:12:33;1.00;99.90
17687;DHT22;8962;52.538;13.266;2024-01-06T13:15:01;1.00;99.90
17687;DHT22;8962;52.538;13.266;2024-01-06T13:17:31;1.00;99.90
17687;DHT22;8962;52.538;13.266;2024-01-06T13:19:58;1.00;99.90
17687;DHT22;8962;52.538;13.266;2024-01-06T13:22:26;1.00;99.90
17687;DHT22;8962;52.538;13.266;2024-01-06T13:24:54;0.90;99.90
17687;DHT22;8962;52.538;13.266;2024-01-06T13:27:21;0.90;99.90
17687;DHT22;8962;52.538;13.266;2024-01-06T13:29:48;0.80;99.90
17687;DHT22;8962;52.538;13.266;2024-01-06T13:32:15;0.80;99.90
17687;DHT22;8962;52.538;13.266;2024-01-06T13:34:45;0.80;99.90
17687;DHT22;8962;52.538;13.266;2024-01-06T13:37:13;0.80;99.90
17687;DHT22;8962;52.538;13.266;2024-01-06T13:39:44;0.90;99.90
17687;DHT22;8962;52.538;13.266;2024-01-06T13:42:12;0.90;99.90
17687;DHT22;8962;52.538;13.266;2024-01-06T13:44:40;0.90;99.90
17687;DHT22;8962;52.538;13.266;2024-01-06T13:47:08;0.90;99.90
17687;DHT22;8962;52.538;13.266;2024-01-06T13:49:35;0.90;99.90
17687;DHT22;8962;52.538;13.266;2024-01-06T13:52:04;0.90;99.90
17687;DHT22;8962;52.538;13.266;2024-01-06T13:54:33;0.90;99.90
17687;DHT22;8962;52.538;13.266;2024-01-06T13:57:02;0.80;99.90
17687;DHT22;8962;52.538;13.266;2024-01-06T13:59:30;0.80;99.90
17687;DHT22;8962;52.538;13.266;2024-01-06T14:01:58;0.80;99.90
17687;DHT22;8962;52.538;13.266;2024-01-06T14:04:28;0.80;99.90
17687;DHT22;8962;52.538;13.266;2024-01-06T14:06:56;0.80;99.90
17687;DHT22;8962;52.538;13.266;2024-01-06T14:09:25;0.70;99.90
17687;DHT22;8962;52.538;13.266;2024-01-06T14:11:52;0.80;99.90
17687;DHT22;8962;52.538;13.266;2024-01-06T14:14:21;0.80;99.90
17687;DHT22;8962;52.538;13.266;2024-01-06T14:16:48;0.80;99.90
17687;DHT22;8962;52.538;13.266;2024-01-06T14:19:17;0.80;99.90
17687;DHT22;8962;52.538;13.266;2024-01-06T14:21:44;0.90;99.90
17687;DHT22;8962;52.538;13.266;2024-01-06T14:24:13;0.90;99.90
17687;DHT22;8962;52.538;13.266;2024-01-06T14:26:42;0.80;99.90
17687;DHT22;8962;52.538;13.266;2024-01-06T14:29:09;0.90;99.90
17687;DHT22;8962;52.538;13.266;2024-01-06T14:31:40;0.80;99.90
17687;DHT22;8962;52.538;13.266;2024-01-06T14:34:09;0.70;99.90
17687;DHT22;8962;52.538;13.266;2024-01-06T14:36:36;0.80;99.90
17687;DHT22;8962;52.538;13.266;2024-01-06T14:39:03;0.80;99.90
17687;DHT22;8962;52.538;13.266;2024-01-06T14:41:32;0.70;99.90
17687;DHT22;8962;52.538;13.266;2024-01-06T14:43:59;0.70;99.90
17687;DHT22;8962;52.538;13.266;2024-01-06T14:46:26;0.60;99.90
17687;DHT22;8962;52.538;13.266;2024-01-06T14:48:55;0.70;99.90
17687;DHT22;8962;52.538;13.266;2024-01-06T14:51:22;0.70;99.90
17687;DHT22;8962;52.538;13.266;2024-01-06T14:53:50;0.80;99.90
17687;DHT22;8962;52.538;13.266;2024-01-06T14:56:17;0.70;99.90
17687;DHT22;8962;52.538;13.266;2024-01-06T14:58:45;0.70;99.90
17687;DHT22;8962;52.538;13.266;2024-01-06T15:01:13;0.70;99.90
17687;DHT22;8962;52.538;13.266;2024-01-06T15:03:40;0.70;99.90
17687;DHT22;8962;52.538;13.266;2024-01-06T15:06:11;0.70;99.90
17687;DHT22;8962;52.538;13.266;2024-01-06T15:08:38;0.70;99.90
17687;DHT22;8962;52.538;13.266;2024-01-06T15:11:09;0.70;99.90
17687;DHT22;8962;52.538;13.266;2024-01-06T15:13:36;0.70;99.90
17687;DHT22;8962;52.538;13.266;2024-01-06T15:16:04;0.70;99.90
17687;DHT22;8962;52.538;13.266;2024-01-06T15:18:34;0.70;99.90
17687;DHT22;8962;52.538;13.266;2024-01-06T15:21:01;0.70;99.90
17687;DHT22;8962;52.538;13.266;2024-01-06T15:23:32;0.60;99.90
17687;DHT22;8962;52.538;13.266;2024-01-06T15:26:00;0.70;99.90
17687;DHT22;8962;52.538;13.266;2024-01-06T15:28:29;0.70;99.90
17687;DHT22;8962;52.538;13.266;2024-01-06T15:30:56;0.60;99.90
17687;DHT22;8962;52.538;13.266;2024-01-06T15:33:33;0.70;99.90
17687;DHT22;8962;52.538;13.266;2024-01-06T15:36:00;0.60;99.90
17687;DHT22;8962;52.538;13.266;2024-01-06T15:38:27;0.70;99.90
17687;DHT22;8962;52.538;13.266;2024-01-06T15:40:56;0.70;99.90
17687;DHT22;8962;52.538;13.266;2024-01-06T15:43:24;0.70;99.90
17687;DHT22;8962;52.538;13.266;2024-01-06T15:45:52;0.70;99.90
17687;DHT22;8962;52.538;13.266;2024-01-06T15:48:19;0.70;99.90
17687;DHT22;8962;52.538;13.266;2024-01-06T15:50:47;0.70;99.90